Time,TemperatureF,DewpointF,PressureIn,WindDirection,WindDirectionDegrees,WindSpeedMPH,WindSpeedGustMPH,Humidity,HourlyPrecipIn,Conditions,Clouds,dailyrainin,SoftwareType,DateUTC
2013-03-22 00:00:00,28.1,22.7,29.88,NNW,339,9.8,26.6,80,0.00,,,0.00,VWS V14.01,2013-03-22 04:00:00,
2013-03-22 00:01:00,28.1,22.7,29.88,NNW,338,9.8,21.0,80,0.00,,,0.00,VWS V14.01,2013-03-22 04:01:00,
2013-03-22 00:06:00,28.1,22.7,29.88,NNW,335,9.8,22.4,80,0.00,,,0.00,VWS V14.01,2013-03-22 04:06:00,
2013-03-22 00:11:00,28.1,22.7,29.88,NW,304,11.2,23.8,80,0.00,,,0.00,VWS V14.01,2013-03-22 04:11:00,
2013-03-22 00:16:00,28.0,22.6,29.88,NNW,343,11.2,23.8,80,0.00,,,0.00,VWS V14.01,2013-03-22 04:16:00,
2013-03-22 00:21:00,27.9,22.5,29.88,North,351,9.8,23.8,80,0.00,,,0.00,VWS V14.01,2013-03-22 04:21:00,
2013-03-22 00:26:00,27.7,22.4,29.88,NNW,330,11.2,23.8,80,0.00,,,0.00,VWS V14.01,2013-03-22 04:26:00,
2013-03-22 00:31:00,27.5,21.9,29.88,NW,319,9.8,25.2,79,0.00,,,0.00,VWS V14.01,2013-03-22 04:31:00,
2013-03-22 00:36:00,27.5,21.9,29.88,NNW,340,12.6,26.6,79,0.00,,,0.00,VWS V14.01,2013-03-22 04:36:00,
2013-03-22 00:41:00,27.5,22.1,29.88,NNW,345,12.6,26.6,80,0.00,,,0.00,VWS V14.01,2013-03-22 04:41:00,
2013-03-22 00:46:00,27.5,22.1,29.88,NNW,347,9.8,26.6,80,0.00,,,0.00,VWS V14.01,2013-03-22 04:46:00,
2013-03-22 00:51:00,27.4,22.4,29.88,NNE,12,14.0,26.6,81,0.00,,,0.00,VWS V14.01,2013-03-22 04:51:00,
2013-03-22 00:56:00,27.3,22.2,29.88,North,356,14.0,26.6,81,0.00,,,0.00,VWS V14.01,2013-03-22 04:56:00,
2013-03-22 01:01:00,27.3,22.2,29.87,NNW,343,16.8,26.6,81,0.00,,,0.00,VWS V14.01,2013-03-22 05:01:00,
2013-03-22 01:06:00,27.3,22.5,29.87,NNW,341,12.6,26.6,82,0.00,,,0.00,VWS V14.01,2013-03-22 05:06:00,
2013-03-22 01:11:00,27.4,22.4,29.88,NNW,329,14.0,26.6,81,0.00,,,0.00,VWS V14.01,2013-03-22 05:11:00,
2013-03-22 01:16:00,27.4,22.4,29.88,NNE,24,14.0,26.6,81,0.00,,,0.00,VWS V14.01,2013-03-22 05:16:00,
2013-03-22 01:21:00,27.5,22.5,29.88,NNW,328,18.2,26.6,81,0.00,,,0.00,VWS V14.01,2013-03-22 05:21:00,
2013-03-22 01:26:00,27.6,22.5,29.88,NNW,345,18.2,26.6,81,0.00,,,0.00,VWS V14.01,2013-03-22 05:26:00,
2013-03-22 01:31:00,27.6,22.5,29.88,NNW,348,15.4,26.6,81,0.00,,,0.00,VWS V14.01,2013-03-22 05:31:00,
2013-03-22 01:36:00,27.7,22.6,29.88,NNW,342,11.2,26.6,81,0.00,,,0.00,VWS V14.01,2013-03-22 05:36:00,
2013-03-22 01:41:00,27.7,22.4,29.88,NW,309,7.0,26.6,80,0.00,,,0.00,VWS V14.01,2013-03-22 05:41:00,
2013-03-22 01:46:00,27.6,22.5,29.88,NNW,342,15.4,26.6,81,0.00,,,0.00,VWS V14.01,2013-03-22 05:46:00,
2013-03-22 01:51:00,27.5,22.5,29.88,NNE,16,9.8,26.6,81,0.00,,,0.00,VWS V14.01,2013-03-22 05:51:00,
2013-03-22 01:56:00,27.5,22.5,29.88,NNW,331,12.6,26.6,81,0.00,,,0.00,VWS V14.01,2013-03-22 05:56:00,
2013-03-22 02:00:00,27.2,22.7,29.89,NNW,343,8.4,26.6,83,0.00,,,0.00,VWS V14.01,2013-03-22 06:00:00,
2013-03-22 02:01:00,27.1,22.6,29.89,NNW,335,7.0,12.6,83,0.00,,,0.00,VWS V14.01,2013-03-22 06:01:00,
2013-03-22 02:06:00,26.5,22.0,29.89,North,357,7.0,14.0,83,0.00,,,0.00,VWS V14.01,2013-03-22 06:06:00,
2013-03-22 02:11:00,26.2,22.3,29.89,North,11,7.0,14.0,85,0.00,,,0.00,VWS V14.01,2013-03-22 06:11:00,
2013-03-22 02:16:00,26.1,21.9,29.89,NNW,342,4.2,14.0,84,0.00,,,0.00,VWS V14.01,2013-03-22 06:16:00,
2013-03-22 02:21:00,26.0,21.6,29.88,NNW,338,8.4,14.0,83,0.00,,,0.00,VWS V14.01,2013-03-22 06:21:00,
2013-03-22 02:26:00,25.9,21.2,29.89,NW,321,8.4,14.0,82,0.00,,,0.00,VWS V14.01,2013-03-22 06:26:00,
2013-03-22 02:31:00,25.9,21.2,29.89,East,86,8.4,21.0,82,0.00,,,0.00,VWS V14.01,2013-03-22 06:31:00,
2013-03-22 02:36:00,25.9,21.2,29.88,NNW,348,9.8,21.0,82,0.00,,,0.00,VWS V14.01,2013-03-22 06:36:00,
2013-03-22 02:41:00,25.7,21.3,29.88,North,4,7.0,21.0,83,0.00,,,0.00,VWS V14.01,2013-03-22 06:41:00,
2013-03-22 02:46:00,25.7,21.3,29.88,NNW,347,7.0,21.0,83,0.00,,,0.00,VWS V14.01,2013-03-22 06:46:00,
2013-03-22 02:51:00,25.7,21.0,29.88,NNW,348,11.2,21.0,82,0.00,,,0.00,VWS V14.01,2013-03-22 06:51:00,
2013-03-22 02:56:00,25.4,20.7,29.89,NNW,332,7.0,21.0,82,0.00,,,0.00,VWS V14.01,2013-03-22 06:56:00,
2013-03-22 03:00:00,27.2,22.7,29.89,NNW,343,8.4,26.6,83,0.00,,,0.00,VWS V14.01,2013-03-22 07:00:00,
2013-03-22 03:01:00,25.3,20.3,29.89,North,354,8.4,21.0,81,0.00,,,0.00,VWS V14.01,2013-03-22 07:01:00,
2013-03-22 03:06:00,25.2,19.9,29.89,North,352,8.4,21.0,80,0.00,,,0.00,VWS V14.01,2013-03-22 07:06:00,
2013-03-22 03:11:00,25.0,19.7,29.89,North,11,8.4,21.0,80,0.00,,,0.00,VWS V14.01,2013-03-22 07:11:00,
2013-03-22 03:16:00,24.8,19.5,29.89,NNW,346,8.4,21.0,80,0.00,,,0.00,VWS V14.01,2013-03-22 07:16:00,
2013-03-22 04:00:00,23.0,18.3,29.89,NNW,338,8.4,21.0,82,0.00,,,0.00,VWS V14.01,2013-03-22 08:00:00,
2013-03-22 05:00:00,23.0,18.3,29.89,NNW,338,8.4,21.0,82,0.00,,,0.00,VWS V14.01,2013-03-22 09:00:00,
2013-03-22 06:00:00,20.3,15.7,29.91,NNW,338,7.0,19.6,82,0.00,,,0.00,VWS V14.01,2013-03-22 10:00:00,
2013-03-22 09:06:00,20.3,15.7,29.91,NNW,338,7.0,19.6,82,0.00,,,0.00,VWS V14.01,2013-03-22 13:06:00,
2013-03-22 09:11:00,23.7,18.1,29.94,NNW,346,8.4,9.8,79,0.00,,,0.00,VWS V14.01,2013-03-22 13:11:00,
2013-03-22 09:16:00,23.9,18.4,29.94,NNW,342,9.8,12.6,79,0.00,,,0.00,VWS V14.01,2013-03-22 13:16:00,
2013-03-22 09:21:00,24.0,18.5,29.94,North,354,8.4,15.4,79,0.00,,,0.00,VWS V14.01,2013-03-22 13:21:00,
2013-03-22 09:26:00,24.0,18.7,29.94,NW,319,8.4,15.4,80,0.00,,,0.00,VWS V14.01,2013-03-22 13:26:00,
2013-03-22 09:31:00,24.3,19.0,29.94,NW,315,5.6,15.4,80,0.00,,,0.00,VWS V14.01,2013-03-22 13:31:00,
2013-03-22 09:36:00,24.6,19.3,29.94,NNW,341,7.0,15.4,80,0.00,,,0.00,VWS V14.01,2013-03-22 13:36:00,
2013-03-22 09:41:00,24.8,19.8,29.94,NW,326,9.8,18.2,81,0.00,,,0.00,VWS V14.01,2013-03-22 13:41:00,
2013-03-22 09:46:00,25.1,20.1,29.94,NNW,338,9.8,18.2,81,0.00,,,0.00,VWS V14.01,2013-03-22 13:46:00,
2013-03-22 09:51:00,25.7,20.7,29.94,NNW,347,8.4,18.2,81,0.00,,,0.00,VWS V14.01,2013-03-22 13:51:00,
2013-03-22 09:56:00,26.2,21.2,29.94,WSW,257,9.8,18.2,81,0.00,,,0.00,VWS V14.01,2013-03-22 13:56:00,
2013-03-22 10:00:00,26.6,21.6,29.94,NNW,336,8.4,18.2,81,0.00,,,0.00,VWS V14.01,2013-03-22 14:00:00,
2013-03-22 10:01:00,26.6,21.6,29.94,NW,308,2.8,8.4,81,0.00,,,0.00,VWS V14.01,2013-03-22 14:01:00,
2013-03-22 10:06:00,26.8,21.5,29.94,NNW,328,8.4,19.6,80,0.00,,,0.00,VWS V14.01,2013-03-22 14:06:00,
2013-03-22 10:11:00,27.4,21.8,29.94,WSW,245,7.0,19.6,79,0.00,,,0.00,VWS V14.01,2013-03-22 14:11:00,
2013-03-22 10:16:00,27.7,21.8,29.94,NW,316,9.8,19.6,78,0.00,,,0.00,VWS V14.01,2013-03-22 14:16:00,
2013-03-22 10:21:00,27.6,21.6,29.95,NNW,331,14.0,22.4,78,0.00,,,0.00,VWS V14.01,2013-03-22 14:21:00,
2013-03-22 10:26:00,27.3,21.4,29.95,NW,326,8.4,26.6,78,0.00,,,0.00,VWS V14.01,2013-03-22 14:26:00,
2013-03-22 10:31:00,27.6,21.6,29.94,NNW,329,18.2,26.6,78,0.00,,,0.00,VWS V14.01,2013-03-22 14:31:00,
2013-03-22 10:36:00,27.6,21.6,29.94,NW,323,14.0,26.6,78,0.00,,,0.00,VWS V14.01,2013-03-22 14:36:00,
2013-03-22 10:41:00,27.8,21.9,29.94,North,11,19.6,26.6,78,0.00,,,0.00,VWS V14.01,2013-03-22 14:41:00,
2013-03-22 10:46:00,27.6,22.0,29.94,NNW,333,9.8,26.6,79,0.00,,,0.00,VWS V14.01,2013-03-22 14:46:00,
2013-03-22 10:51:00,27.4,21.8,29.94,NNW,335,21.0,26.6,79,0.00,,,0.00,VWS V14.01,2013-03-22 14:51:00,
2013-03-22 10:56:00,28.1,22.1,29.94,NNW,333,12.6,26.6,78,0.00,,,0.00,VWS V14.01,2013-03-22 14:56:00,
2013-03-22 11:00:00,26.6,21.6,29.94,NNW,336,8.4,18.2,81,0.00,,,0.00,VWS V14.01,2013-03-22 15:00:00,
2013-03-22 11:01:00,28.2,21.9,29.94,NNW,343,22.4,26.6,77,0.00,,,0.00,VWS V14.01,2013-03-22 15:01:00,
2013-03-22 11:06:00,28.3,22.0,29.94,NNW,343,15.4,26.6,77,0.00,,,0.00,VWS V14.01,2013-03-22 15:06:00,
2013-03-22 11:11:00,28.2,22.2,29.95,NW,307,5.6,26.6,78,0.00,,,0.00,VWS V14.01,2013-03-22 15:11:00,
2013-03-22 11:16:00,27.9,21.9,29.95,NNW,347,16.8,26.6,78,0.00,,,0.00,VWS V14.01,2013-03-22 15:16:00,
2013-03-22 11:21:00,28.0,22.3,29.95,NW,308,14.0,26.6,79,0.00,,,0.00,VWS V14.01,2013-03-22 15:21:00,
2013-03-22 11:26:00,28.3,22.3,29.94,NNE,12,7.0,26.6,78,0.00,,,0.00,VWS V14.01,2013-03-22 15:26:00,
2013-03-22 11:31:00,28.4,22.1,29.94,NNW,334,4.2,26.6,77,0.00,,,0.00,VWS V14.01,2013-03-22 15:31:00,
2013-03-22 11:36:00,28.6,22.3,29.94,NW,312,5.6,26.6,77,0.00,,,0.00,VWS V14.01,2013-03-22 15:36:00,
2013-03-22 11:41:00,28.5,22.2,29.95,NNE,32,7.0,26.6,77,0.00,,,0.00,VWS V14.01,2013-03-22 15:41:00,
2013-03-22 11:46:00,28.7,22.4,29.95,NNW,332,9.8,26.6,77,0.00,,,0.00,VWS V14.01,2013-03-22 15:46:00,
2013-03-22 11:51:00,29.3,22.7,29.95,NW,310,11.2,26.6,76,0.00,,,0.00,VWS V14.01,2013-03-22 15:51:00,
2013-03-22 11:55:00,28.4,22.1,29.95,ENE,78,22.4,26.6,77,0.00,,,0.00,VWS V14.01,2013-03-22 15:55:00,
2013-03-22 12:00:00,28.6,22.3,29.95,NW,323,25.2,25.2,77,0.00,,,0.00,VWS V14.01,2013-03-22 16:00:00,
2013-03-22 12:05:00,28.6,22.3,29.95,NW,318,14.0,25.2,77,0.00,,,0.00,VWS V14.01,2013-03-22 16:05:00,
2013-03-22 12:10:00,28.7,22.1,29.95,NNW,344,11.2,25.2,76,0.00,,,0.00,VWS V14.01,2013-03-22 16:10:00,
2013-03-22 12:15:00,28.2,21.9,29.95,West,280,16.8,25.2,77,0.00,,,0.00,VWS V14.01,2013-03-22 16:15:00,
2013-03-22 12:20:00,28.2,22.2,29.95,WNW,284,8.4,25.2,78,0.00,,,0.00,VWS V14.01,2013-03-22 16:20:00,
2013-03-22 12:25:00,28.2,21.9,29.95,SSE,151,2.8,25.2,77,0.00,,,0.00,VWS V14.01,2013-03-22 16:25:00,
2013-03-22 12:30:00,28.6,22.3,29.95,NW,324,4.2,25.2,77,0.00,,,0.00,VWS V14.01,2013-03-22 16:30:00,
2013-03-22 12:35:00,28.7,22.1,29.95,NW,319,5.6,25.2,76,0.00,,,0.00,VWS V14.01,2013-03-22 16:35:00,
2013-03-22 12:40:00,29.0,22.4,29.95,NNW,331,11.2,25.2,76,0.00,,,0.00,VWS V14.01,2013-03-22 16:40:00,
2013-03-22 12:45:00,28.9,22.3,29.95,NW,322,7.0,25.2,76,0.00,,,0.00,VWS V14.01,2013-03-22 16:45:00,
2013-03-22 12:50:00,28.6,22.0,29.95,NW,309,12.6,25.2,76,0.00,,,0.00,VWS V14.01,2013-03-22 16:50:00,
2013-03-22 12:55:00,28.9,22.3,29.95,West,261,1.4,25.2,76,0.00,,,0.00,VWS V14.01,2013-03-22 16:55:00,
2013-03-22 13:00:00,29.2,22.3,29.95,NW,324,11.2,25.2,75,0.00,,,0.00,VWS V14.01,2013-03-22 17:00:00,
2013-03-22 13:05:00,29.5,22.6,29.95,NNW,334,14.0,25.2,75,0.00,,,0.00,VWS V14.01,2013-03-22 17:05:00,
2013-03-22 13:10:00,29.0,22.4,29.95,NNE,15,15.4,28.0,76,0.00,,,0.00,VWS V14.01,2013-03-22 17:10:00,
2013-03-22 13:15:00,29.2,22.9,29.95,NW,316,8.4,28.0,77,0.00,,,0.00,VWS V14.01,2013-03-22 17:15:00,
2013-03-22 13:20:00,29.3,23.0,29.96,North,5,7.0,28.0,77,0.00,,,0.00,VWS V14.01,2013-03-22 17:20:00,
2013-03-22 13:25:00,29.5,22.9,29.95,NNE,16,12.6,28.0,76,0.00,,,0.00,VWS V14.01,2013-03-22 17:25:00,
2013-03-22 13:30:00,29.6,23.3,29.95,NNW,335,12.6,28.0,77,0.00,,,0.00,VWS V14.01,2013-03-22 17:30:00,
2013-03-22 13:35:00,29.0,22.4,29.95,North,349,25.2,28.0,76,0.00,,,0.00,VWS V14.01,2013-03-22 17:35:00,
2013-03-22 13:40:00,28.7,22.4,29.95,NW,314,15.4,28.0,77,0.00,,,0.00,VWS V14.01,2013-03-22 17:40:00,
2013-03-22 13:45:00,29.1,22.8,29.95,NNW,333,8.4,28.0,77,0.00,,,0.00,VWS V14.01,2013-03-22 17:45:00,
2013-03-22 13:50:00,29.2,22.6,29.95,NNW,342,11.2,28.0,76,0.00,,,0.00,VWS V14.01,2013-03-22 17:50:00,
2013-03-22 13:55:00,29.3,22.7,29.95,NNW,338,16.8,28.0,76,0.00,,,0.00,VWS V14.01,2013-03-22 17:55:00,
2013-03-22 14:00:00,28.9,22.3,29.95,NW,304,11.2,19.6,76,0.00,,,0.00,VWS V14.01,2013-03-22 18:00:00,
2013-03-22 14:05:00,29.2,22.9,29.95,NNW,348,11.2,21.0,77,0.00,,,0.00,VWS V14.01,2013-03-22 18:05:00,
2013-03-22 14:10:00,29.7,23.4,29.95,North,1,14.0,21.0,77,0.00,,,0.00,VWS V14.01,2013-03-22 18:10:00,
2013-03-22 14:15:00,29.4,23.1,29.95,North,349,19.6,26.6,77,0.00,,,0.00,VWS V14.01,2013-03-22 18:15:00,
2013-03-22 14:20:00,29.2,23.2,29.95,NW,305,18.2,26.6,78,0.00,,,0.00,VWS V14.01,2013-03-22 18:20:00,
2013-03-22 14:25:00,28.9,23.2,29.95,NNW,341,28.0,29.4,79,0.00,,,0.00,VWS V14.01,2013-03-22 18:25:00,
2013-03-22 14:30:00,28.9,23.2,29.94,NW,324,16.8,30.8,79,0.00,,,0.00,VWS V14.01,2013-03-22 18:30:00,
2013-03-22 14:35:00,28.8,23.1,29.94,NNW,342,19.6,32.2,79,0.00,,,0.00,VWS V14.01,2013-03-22 18:35:00,
2013-03-22 14:40:00,29.0,23.3,29.95,NNW,348,25.2,32.2,79,0.00,,,0.00,VWS V14.01,2013-03-22 18:40:00,
2013-03-22 14:45:00,29.2,23.5,29.95,ESE,109,15.4,32.2,79,0.00,,,0.00,VWS V14.01,2013-03-22 18:45:00,
2013-03-22 14:50:00,29.8,24.1,29.95,West,267,12.6,32.2,79,0.00,,,0.00,VWS V14.01,2013-03-22 18:50:00,
2013-03-22 14:55:00,29.9,23.9,29.95,WNW,287,5.6,32.2,78,0.00,,,0.00,VWS V14.01,2013-03-22 18:55:00,
2013-03-22 15:00:00,30.1,24.1,29.95,North,349,11.2,32.2,78,0.00,,,0.00,VWS V14.01,2013-03-22 19:00:00,
2013-03-22 15:05:00,29.6,23.3,29.95,NNW,339,19.6,32.2,77,0.00,,,0.00,VWS V14.01,2013-03-22 19:05:00,
2013-03-22 15:10:00,29.4,23.7,29.95,NNW,330,11.2,32.2,79,0.00,,,0.00,VWS V14.01,2013-03-22 19:10:00,
2013-03-22 15:15:00,29.4,23.7,29.96,NW,304,11.2,32.2,79,0.00,,,0.00,VWS V14.01,2013-03-22 19:15:00,
2013-03-22 15:20:00,29.7,23.7,29.95,NW,314,12.6,32.2,78,0.00,,,0.00,VWS V14.01,2013-03-22 19:20:00,
2013-03-22 15:25:00,29.9,23.9,29.95,NNW,332,12.6,32.2,78,0.00,,,0.00,VWS V14.01,2013-03-22 19:25:00,
2013-03-22 15:30:00,30.4,24.1,29.95,NNW,340,15.4,32.2,77,0.00,,,0.00,VWS V14.01,2013-03-22 19:30:00,
2013-03-22 15:35:00,30.3,23.7,29.95,NW,321,18.2,32.2,76,0.00,,,0.00,VWS V14.01,2013-03-22 19:35:00,
2013-03-22 15:40:00,30.0,23.0,29.95,NW,308,16.8,32.2,75,0.00,,,0.00,VWS V14.01,2013-03-22 19:40:00,
2013-03-22 15:45:00,29.7,23.4,29.95,SSW,197,7.0,32.2,77,0.00,,,0.00,VWS V14.01,2013-03-22 19:45:00,
2013-03-22 15:50:00,29.5,23.2,29.96,NW,312,12.6,32.2,77,0.00,,,0.00,VWS V14.01,2013-03-22 19:50:00,
2013-03-22 15:55:00,29.7,23.1,29.96,NNW,333,7.0,32.2,76,0.00,,,0.00,VWS V14.01,2013-03-22 19:55:00,
2013-03-22 16:00:00,29.6,23.0,29.96,NW,321,11.2,11.2,76,0.00,,,0.00,VWS V14.01,2013-03-22 20:00:00,
2013-03-22 16:05:00,29.6,23.0,29.96,NNW,329,16.8,26.6,76,0.00,,,0.00,VWS V14.01,2013-03-22 20:05:00,
2013-03-22 16:10:00,29.6,23.3,29.96,WNW,297,19.6,26.6,77,0.00,,,0.00,VWS V14.01,2013-03-22 20:10:00,
2013-03-22 16:15:00,29.4,22.8,29.96,NNW,338,23.8,28.0,76,0.00,,,0.00,VWS V14.01,2013-03-22 20:15:00,
2013-03-22 16:20:00,29.3,23.0,29.96,NNW,347,19.6,30.8,77,0.00,,,0.00,VWS V14.01,2013-03-22 20:20:00,
2013-03-22 16:25:00,29.2,22.9,29.95,NNW,347,18.2,30.8,77,0.00,,,0.00,VWS V14.01,2013-03-22 20:25:00,
2013-03-22 16:30:00,29.0,23.0,29.95,NNW,331,11.2,30.8,78,0.00,,,0.00,VWS V14.01,2013-03-22 20:30:00,
2013-03-22 16:35:00,29.2,22.9,29.96,North,11,7.0,30.8,77,0.00,,,0.00,VWS V14.01,2013-03-22 20:35:00,
2013-03-22 16:40:00,29.2,22.6,29.96,NE,43,11.2,30.8,76,0.00,,,0.00,VWS V14.01,2013-03-22 20:40:00,
2013-03-22 16:45:00,29.1,22.8,29.96,WNW,299,15.4,30.8,77,0.00,,,0.00,VWS V14.01,2013-03-22 20:45:00,
2013-03-22 16:50:00,29.2,22.9,29.96,NNE,27,11.2,30.8,77,0.00,,,0.00,VWS V14.01,2013-03-22 20:50:00,
2013-03-22 16:55:00,29.4,22.8,29.96,SE,136,7.0,30.8,76,0.00,,,0.00,VWS V14.01,2013-03-22 20:55:00,
2013-03-22 17:00:00,29.4,22.8,29.96,West,264,9.8,30.8,76,0.00,,,0.00,VWS V14.01,2013-03-22 21:00:00,
2013-03-22 17:05:00,29.5,23.2,29.96,NW,321,19.6,30.8,77,0.00,,,0.00,VWS V14.01,2013-03-22 21:05:00,
2013-03-22 17:10:00,29.5,22.9,29.95,NNW,328,14.0,30.8,76,0.00,,,0.00,VWS V14.01,2013-03-22 21:10:00,
2013-03-22 17:15:00,29.8,23.5,29.95,NNW,335,9.8,30.8,77,0.00,,,0.00,VWS V14.01,2013-03-22 21:15:00,
2013-03-22 17:20:00,29.9,23.6,29.96,West,264,11.2,30.8,77,0.00,,,0.00,VWS V14.01,2013-03-22 21:20:00,
2013-03-22 17:25:00,29.5,23.2,29.96,NNW,332,18.2,32.2,77,0.00,,,0.00,VWS V14.01,2013-03-22 21:25:00,
2013-03-22 17:30:00,29.2,22.9,29.96,WSW,242,9.8,33.6,77,0.00,,,0.00,VWS V14.01,2013-03-22 21:30:00,
2013-03-22 17:35:00,29.4,23.1,29.96,NNW,338,12.6,33.6,77,0.00,,,0.00,VWS V14.01,2013-03-22 21:35:00,
2013-03-22 17:40:00,29.4,23.1,29.96,NNW,336,15.4,33.6,77,0.00,,,0.00,VWS V14.01,2013-03-22 21:40:00,
2013-03-22 17:45:00,29.3,23.0,29.96,WNW,285,12.6,33.6,77,0.00,,,0.00,VWS V14.01,2013-03-22 21:45:00,
2013-03-22 17:50:00,29.2,23.2,29.96,NNW,345,8.4,33.6,78,0.00,,,0.00,VWS V14.01,2013-03-22 21:50:00,
2013-03-22 17:55:00,29.2,23.2,29.96,WNW,295,11.2,33.6,78,0.00,,,0.00,VWS V14.01,2013-03-22 21:55:00,
2013-03-22 18:00:00,29.3,23.3,29.97,NNW,330,9.8,33.6,78,0.00,,,0.00,VWS V14.01,2013-03-22 22:00:00,
2013-03-22 18:05:00,29.2,22.9,29.96,NNW,346,18.2,21.0,77,0.00,,,0.00,VWS V14.01,2013-03-22 22:05:00,
2013-03-22 18:10:00,29.1,22.8,29.97,SSE,164,4.2,22.4,77,0.00,,,0.00,VWS V14.01,2013-03-22 22:10:00,
2013-03-22 18:15:00,29.1,23.1,29.97,NNW,347,14.0,22.4,78,0.00,,,0.00,VWS V14.01,2013-03-22 22:15:00,
2013-03-22 18:20:00,29.0,22.7,29.97,ENE,74,2.8,22.4,77,0.00,,,0.00,VWS V14.01,2013-03-22 22:20:00,
2013-03-22 18:25:00,29.0,22.7,29.97,NNW,348,18.2,22.4,77,0.00,,,0.00,VWS V14.01,2013-03-22 22:25:00,
2013-03-22 18:30:00,28.9,22.9,29.97,West,270,11.2,22.4,78,0.00,,,0.00,VWS V14.01,2013-03-22 22:30:00,
2013-03-22 18:35:00,29.0,23.0,29.97,West,273,4.2,22.4,78,0.00,,,0.00,VWS V14.01,2013-03-22 22:35:00,
2013-03-22 18:40:00,29.0,23.0,29.97,NW,319,12.6,22.4,78,0.00,,,0.00,VWS V14.01,2013-03-22 22:40:00,
2013-03-22 18:45:00,28.8,22.8,29.97,NNW,331,15.4,29.4,78,0.00,,,0.00,VWS V14.01,2013-03-22 22:45:00,
2013-03-22 18:50:00,28.6,22.6,29.97,North,350,22.4,29.4,78,0.00,,,0.00,VWS V14.01,2013-03-22 22:50:00,
2013-03-22 18:55:00,28.5,22.5,29.97,NNE,21,15.4,29.4,78,0.00,,,0.00,VWS V14.01,2013-03-22 22:55:00,
2013-03-22 19:00:00,28.4,22.4,29.97,NNW,329,9.8,29.4,78,0.00,,,0.00,VWS V14.01,2013-03-22 23:00:00,
2013-03-22 19:05:00,28.4,22.4,29.98,NW,308,14.0,29.4,78,0.00,,,0.00,VWS V14.01,2013-03-22 23:05:00,
2013-03-22 19:10:00,28.3,22.6,29.98,NNW,338,12.6,29.4,79,0.00,,,0.00,VWS V14.01,2013-03-22 23:10:00,
2013-03-22 19:15:00,27.9,22.2,29.98,NNE,32,9.8,29.4,79,0.00,,,0.00,VWS V14.01,2013-03-22 23:15:00,
2013-03-22 19:20:00,27.7,22.0,29.98,NNE,29,4.2,29.4,79,0.00,,,0.00,VWS V14.01,2013-03-22 23:20:00,
2013-03-22 19:25:00,27.3,21.7,29.98,North,357,16.8,29.4,79,0.00,,,0.00,VWS V14.01,2013-03-22 23:25:00,
2013-03-22 19:30:00,27.1,21.5,29.98,NNW,330,8.4,29.4,79,0.00,,,0.00,VWS V14.01,2013-03-22 23:30:00,
2013-03-22 19:35:00,27.0,21.7,29.99,NW,308,14.0,29.4,80,0.00,,,0.00,VWS V14.01,2013-03-22 23:35:00,
2013-03-22 19:40:00,26.8,21.5,29.99,North,4,5.6,29.4,80,0.00,,,0.00,VWS V14.01,2013-03-22 23:40:00,
2013-03-22 19:45:00,26.8,21.5,29.99,NNW,328,5.6,29.4,80,0.00,,,0.00,VWS V14.01,2013-03-22 23:45:00,
2013-03-22 19:50:00,26.6,21.6,29.99,NW,309,11.2,29.4,81,0.00,,,0.00,VWS V14.01,2013-03-22 23:50:00,
2013-03-22 19:55:00,26.7,21.7,29.99,WNW,296,5.6,29.4,81,0.00,,,0.00,VWS V14.01,2013-03-22 23:55:00,
2013-03-22 20:00:00,26.7,21.7,29.99,NW,321,9.8,29.4,81,0.00,,,0.00,VWS V14.01,2013-03-23 00:00:00,
2013-03-22 20:05:00,26.5,21.5,29.99,NNW,348,4.2,16.8,81,0.00,,,0.00,VWS V14.01,2013-03-23 00:05:00,
2013-03-22 20:10:00,26.6,21.6,29.99,NW,314,12.6,16.8,81,0.00,,,0.00,VWS V14.01,2013-03-23 00:10:00,
2013-03-22 20:15:00,26.6,21.6,29.99,West,278,2.8,16.8,81,0.00,,,0.00,VWS V14.01,2013-03-23 00:15:00,
2013-03-22 20:20:00,26.5,21.5,30.00,NW,319,11.2,16.8,81,0.00,,,0.00,VWS V14.01,2013-03-23 00:20:00,
2013-03-22 20:25:00,26.5,21.5,30.00,WNW,298,12.6,16.8,81,0.00,,,0.00,VWS V14.01,2013-03-23 00:25:00,
2013-03-22 20:30:00,26.5,21.8,30.00,West,271,4.2,16.8,82,0.00,,,0.00,VWS V14.01,2013-03-23 00:30:00,
2013-03-22 20:35:00,26.3,21.6,30.00,West,270,1.4,18.2,82,0.00,,,0.00,VWS V14.01,2013-03-23 00:35:00,
2013-03-22 20:40:00,26.2,21.5,30.00,NNW,341,5.6,18.2,82,0.00,,,0.00,VWS V14.01,2013-03-23 00:40:00,
2013-03-22 20:45:00,26.3,21.9,30.00,WNW,294,5.6,23.8,83,0.00,,,0.00,VWS V14.01,2013-03-23 00:45:00,
2013-03-22 20:50:00,26.3,21.9,30.00,North,4,14.0,23.8,83,0.00,,,0.00,VWS V14.01,2013-03-23 00:50:00,
2013-03-22 20:55:00,26.4,22.0,30.00,WNW,291,9.8,23.8,83,0.00,,,0.00,VWS V14.01,2013-03-23 00:55:00,
2013-03-22 21:00:00,26.3,21.9,30.01,NNW,330,12.6,23.8,83,0.00,,,0.00,VWS V14.01,2013-03-23 01:00:00,
2013-03-22 21:05:00,26.2,22.0,30.01,WSW,250,8.4,23.8,84,0.00,,,0.00,VWS V14.01,2013-03-23 01:05:00,
2013-03-22 21:10:00,26.0,21.8,30.01,NNW,335,5.6,23.8,84,0.00,,,0.00,VWS V14.01,2013-03-23 01:10:00,
2013-03-22 21:15:00,25.9,21.7,30.02,NW,311,2.8,23.8,84,0.00,,,0.00,VWS V14.01,2013-03-23 01:15:00,
2013-03-22 21:20:00,25.8,21.6,30.02,NW,314,8.4,23.8,84,0.00,,,0.00,VWS V14.01,2013-03-23 01:20:00,
2013-03-22 21:25:00,25.8,21.9,30.02,NW,315,2.8,23.8,85,0.00,,,0.00,VWS V14.01,2013-03-23 01:25:00,
2013-03-22 21:30:00,25.8,21.9,30.02,NNW,333,5.6,23.8,85,0.00,,,0.00,VWS V14.01,2013-03-23 01:30:00,
2013-03-22 21:35:00,25.8,21.6,30.02,NW,325,2.8,23.8,84,0.00,,,0.00,VWS V14.01,2013-03-23 01:35:00,
2013-03-22 21:40:00,26.0,22.1,30.02,NW,319,5.6,23.8,85,0.00,,,0.00,VWS V14.01,2013-03-23 01:40:00,
2013-03-22 21:45:00,26.1,22.2,30.02,NW,312,9.8,23.8,85,0.00,,,0.00,VWS V14.01,2013-03-23 01:45:00,
2013-03-22 21:50:00,26.3,22.4,30.02,NW,305,8.4,23.8,85,0.00,,,0.00,VWS V14.01,2013-03-23 01:50:00,
2013-03-22 21:55:00,26.3,22.4,30.02,WSW,239,4.2,23.8,85,0.00,,,0.00,VWS V14.01,2013-03-23 01:55:00,
2013-03-22 22:00:00,26.4,22.5,30.02,NW,309,7.0,23.8,85,0.00,,,0.00,VWS V14.01,2013-03-23 02:00:00,
2013-03-22 22:05:00,26.5,22.6,30.02,West,262,2.8,8.4,85,0.00,,,0.00,VWS V14.01,2013-03-23 02:05:00,
2013-03-22 22:10:00,26.5,22.6,30.02,WNW,289,4.2,11.2,85,0.00,,,0.00,VWS V14.01,2013-03-23 02:10:00,
2013-03-22 22:15:00,26.5,22.6,30.02,West,259,4.2,11.2,85,0.00,,,0.00,VWS V14.01,2013-03-23 02:15:00,
2013-03-22 22:20:00,26.4,22.5,30.03,West,264,9.8,11.2,85,0.00,,,0.00,VWS V14.01,2013-03-23 02:20:00,
2013-03-22 22:25:00,26.3,22.4,30.02,WNW,284,1.4,11.2,85,0.00,,,0.00,VWS V14.01,2013-03-23 02:25:00,
2013-03-22 22:30:00,26.1,22.2,30.02,WNW,283,5.6,11.2,85,0.00,,,0.00,VWS V14.01,2013-03-23 02:30:00,
2013-03-22 22:35:00,26.0,22.1,30.03,WNW,288,5.6,11.2,85,0.00,,,0.00,VWS V14.01,2013-03-23 02:35:00,
2013-03-22 22:40:00,26.0,22.1,30.02,West,281,1.4,12.6,85,0.00,,,0.00,VWS V14.01,2013-03-23 02:40:00,
2013-03-22 22:45:00,25.9,22.0,30.03,NW,318,2.8,12.6,85,0.00,,,0.00,VWS V14.01,2013-03-23 02:45:00,
2013-03-22 22:50:00,25.7,21.8,30.03,WSW,248,2.8,12.6,85,0.00,,,0.00,VWS V14.01,2013-03-23 02:50:00,
2013-03-22 22:55:00,25.6,22.0,30.03,WSW,253,7.0,12.6,86,0.00,,,0.00,VWS V14.01,2013-03-23 02:55:00,
2013-03-22 23:00:00,25.4,21.8,30.03,WNW,295,7.0,12.6,86,0.00,,,0.00,VWS V14.01,2013-03-23 03:00:00,
2013-03-22 23:05:00,25.4,22.1,30.03,West,269,5.6,12.6,87,0.00,,,0.00,VWS V14.01,2013-03-23 03:05:00,
2013-03-22 23:10:00,25.3,21.7,30.03,WNW,285,8.4,12.6,86,0.00,,,0.00,VWS V14.01,2013-03-23 03:10:00,
2013-03-22 23:15:00,25.3,22.0,30.02,WNW,289,2.8,12.6,87,0.00,,,0.00,VWS V14.01,2013-03-23 03:15:00,
2013-03-22 23:20:00,25.2,21.9,30.03,WNW,288,4.2,12.6,87,0.00,,,0.00,VWS V14.01,2013-03-23 03:20:00,
2013-03-22 23:25:00,25.1,21.8,30.03,West,262,2.8,12.6,87,0.00,,,0.00,VWS V14.01,2013-03-23 03:25:00,
2013-03-22 23:30:00,25.0,21.7,30.03,West,259,2.8,12.6,87,0.00,,,0.00,VWS V14.01,2013-03-23 03:30:00,
2013-03-22 23:35:00,24.9,21.9,30.03,WNW,299,5.6,12.6,88,0.00,,,0.00,VWS V14.01,2013-03-23 03:35:00,
2013-03-22 23:40:00,24.8,21.8,30.03,WNW,288,4.2,12.6,88,0.00,,,0.00,VWS V14.01,2013-03-23 03:40:00,
2013-03-22 23:44:00,24.8,21.8,30.03,West,270,7.0,12.6,88,0.00,,,0.00,VWS V14.01,2013-03-23 03:44:00,
2013-03-22 23:49:00,24.8,21.8,30.03,NNW,342,5.6,12.6,88,0.00,,,0.00,VWS V14.01,2013-03-23 03:49:00,
2013-03-22 23:54:00,24.9,21.9,30.03,WSW,250,2.8,12.6,88,0.00,,,0.00,VWS V14.01,2013-03-23 03:54:00,
2013-03-22 23:59:00,25.0,22.0,30.03,WNW,286,8.4,12.6,88,0.00,,,0.00,VWS V14.01,2013-03-23 03:59:00,